Wabasha, Minnesota
Current Conditions -  °F | °C
As of 5:10 AM on Friday 24 Oct 2014 (Local Time) from KRGK Reporting Station
Haze Haze  
Wind Chill: 46°   Ceiling: 400
Heat Index: 48°   Visibility: 4mi
Dew Point: 46°   Wind: 6mph
Humidity: 93%   Direction: 120°ESE
Pressure: 29.95"   Gusts: NA
Location:  44.38°N, 92.04°W
Report Text: KRGK 241010Z AUTO 12005KT 4SM BR BKN004 09/08 A2995 RMK AO2
Loading
Personal Weather Stations






























Interactive Weather Map
Tropical Storm Tracking
New forecast layout! Learn more

10-Day Weather Forecast

Advertisements
Track Severe Weather on mobile